sensor_id;sensor_type;location;lat;lon;timestamp;noise_LAeq;noise_LA_min;noise_LA_max;noise_LA01;noise_LA95
77729;Laerm;68312;53.502;10.030;2023-06-05T00:00:44;43.21;37.86;50.38;;
77729;Laerm;68312;53.502;10.030;2023-06-05T00:03:10;42.32;36.50;50.14;;
77729;Laerm;68312;53.502;10.030;2023-06-05T00:05:36;41.16;37.99;45.56;;
77729;Laerm;68312;53.502;10.030;2023-06-05T00:08:01;40.80;36.23;46.28;;
77729;Laerm;68312;53.502;10.030;2023-06-05T00:10:27;41.18;37.44;46.34;;
77729;Laerm;68312;53.502;10.030;2023-06-05T00:12:52;40.30;37.06;45.48;;
77729;Laerm;68312;53.502;10.030;2023-06-05T00:15:17;42.71;37.23;51.37;;
77729;Laerm;68312;53.502;10.030;2023-06-05T00:17:43;40.40;35.54;49.08;;
77729;Laerm;68312;53.502;10.030;2023-06-05T00:20:09;40.89;37.05;45.00;;
77729;Laerm;68312;53.502;10.030;2023-06-05T00:22:35;42.35;36.62;50.94;;
77729;Laerm;68312;53.502;10.030;2023-06-05T00:25:01;45.32;39.90;53.34;;
77729;Laerm;68312;53.502;10.030;2023-06-05T00:27:28;44.39;38.23;52.35;;
77729;Laerm;68312;53.502;10.030;2023-06-05T00:29:54;42.57;38.19;49.39;;
77729;Laerm;68312;53.502;10.030;2023-06-05T00:32:19;42.84;36.94;53.25;;
77729;Laerm;68312;53.502;10.030;2023-06-05T00:34:45;42.18;36.46;49.79;;
77729;Laerm;68312;53.502;10.030;2023-06-05T00:37:11;40.51;35.44;46.95;;
77729;Laerm;68312;53.502;10.030;2023-06-05T00:39:37;41.07;36.76;46.15;;
77729;Laerm;68312;53.502;10.030;2023-06-05T00:42:02;42.28;37.96;46.87;;
77729;Laerm;68312;53.502;10.030;2023-06-05T00:44:28;40.41;36.80;44.54;;
77729;Laerm;68312;53.502;10.030;2023-06-05T00:46:53;40.36;36.03;46.66;;
77729;Laerm;68312;53.502;10.030;2023-06-05T00:49:19;40.83;37.04;46.28;;
77729;Laerm;68312;53.502;10.030;2023-06-05T00:51:46;40.47;36.10;51.97;;
77729;Laerm;68312;53.502;10.030;2023-06-05T00:54:12;41.51;37.39;49.20;;
77729;Laerm;68312;53.502;10.030;2023-06-05T00:56:38;38.96;35.98;43.33;;
77729;Laerm;68312;53.502;10.030;2023-06-05T00:59:03;39.48;35.37;45.27;;
77729;Laerm;68312;53.502;10.030;2023-06-05T01:01:29;39.29;35.27;44.04;;
77729;Laerm;68312;53.502;10.030;2023-06-05T01:03:55;39.51;35.17;45.00;;
77729;Laerm;68312;53.502;10.030;2023-06-05T01:06:21;39.73;36.35;44.09;;
77729;Laerm;68312;53.502;10.030;2023-06-05T01:08:46;38.76;35.33;43.73;;
77729;Laerm;68312;53.502;10.030;2023-06-05T01:11:43;39.65;35.47;45.82;;
77729;Laerm;68312;53.502;10.030;2023-06-05T01:14:28;41.67;35.14;57.70;;
77729;Laerm;68312;53.502;10.030;2023-06-05T01:16:57;43.01;36.15;59.62;;
77729;Laerm;68312;53.502;10.030;2023-06-05T01:19:24;39.94;35.63;45.48;;
77729;Laerm;68312;53.502;10.030;2023-06-05T01:21:49;39.29;34.97;44.62;;
77729;Laerm;68312;53.502;10.030;2023-06-05T01:24:15;39.86;35.42;43.91;;
77729;Laerm;68312;53.502;10.030;2023-06-05T01:27:14;39.27;36.13;45.11;;
77729;Laerm;68312;53.502;10.030;2023-06-05T01:30:00;39.58;36.26;47.30;;
77729;Laerm;68312;53.502;10.030;2023-06-05T01:32:57;39.44;36.04;43.03;;
77729;Laerm;68312;53.502;10.030;2023-06-05T01:35:32;39.51;36.45;46.74;;
77729;Laerm;68312;53.502;10.030;2023-06-05T01:38:01;40.63;37.17;45.03;;
77729;Laerm;68312;53.502;10.030;2023-06-05T01:40:29;40.18;36.19;45.51;;
77729;Laerm;68312;53.502;10.030;2023-06-05T01:42:56;39.90;36.28;44.28;;
77729;Laerm;68312;53.502;10.030;2023-06-05T01:45:23;40.32;36.38;45.88;;
77729;Laerm;68312;53.502;10.030;2023-06-05T01:47:50;40.63;36.67;45.10;;
77729;Laerm;68312;53.502;10.030;2023-06-05T01:50:17;41.40;38.04;47.34;;
77729;Laerm;68312;53.502;10.030;2023-06-05T01:52:43;42.84;38.35;49.64;;
77729;Laerm;68312;53.502;10.030;2023-06-05T01:55:20;53.42;39.27;68.92;;
77729;Laerm;68312;53.502;10.030;2023-06-05T01:57:46;56.31;38.30;70.92;;
77729;Laerm;68312;53.502;10.030;2023-06-05T02:00:12;49.51;38.27;69.95;;
77729;Laerm;68312;53.502;10.030;2023-06-05T02:02:39;50.56;40.27;54.38;;
77729;Laerm;68312;53.502;10.030;2023-06-05T02:05:05;49.35;46.72;53.92;;
77729;Laerm;68312;53.502;10.030;2023-06-05T02:07:30;48.54;39.78;53.49;;
77729;Laerm;68312;53.502;10.030;2023-06-05T02:09:55;48.95;46.40;56.09;;
77729;Laerm;68312;53.502;10.030;2023-06-05T02:12:21;49.04;46.07;56.65;;
77729;Laerm;68312;53.502;10.030;2023-06-05T02:14:46;48.81;41.22;60.01;;
77729;Laerm;68312;53.502;10.030;2023-06-05T02:17:12;49.39;46.32;55.44;;
77729;Laerm;68312;53.502;10.030;2023-06-05T02:19:37;49.02;40.54;54.87;;
77729;Laerm;68312;53.502;10.030;2023-06-05T02:22:03;48.68;41.84;55.62;;
77729;Laerm;68312;53.502;10.030;2023-06-05T02:24:28;46.94;41.06;60.00;;
77729;Laerm;68312;53.502;10.030;2023-06-05T02:26:53;46.23;39.79;54.25;;
77729;Laerm;68312;53.502;10.030;2023-06-05T02:29:19;51.35;39.97;71.93;;
77729;Laerm;68312;53.502;10.030;2023-06-05T02:31:44;48.17;39.62;64.32;;
77729;Laerm;68312;53.502;10.030;2023-06-05T02:34:10;48.20;39.87;63.40;;
77729;Laerm;68312;53.502;10.030;2023-06-05T02:36:36;48.41;39.13;58.40;;
77729;Laerm;68312;53.502;10.030;2023-06-05T02:39:03;49.45;39.55;63.44;;
77729;Laerm;68312;53.502;10.030;2023-06-05T02:41:28;48.14;39.88;61.09;;
77729;Laerm;68312;53.502;10.030;2023-06-05T02:43:54;47.26;40.09;58.91;;
77729;Laerm;68312;53.502;10.030;2023-06-05T02:46:19;46.86;39.87;67.16;;
77729;Laerm;68312;53.502;10.030;2023-06-05T02:48:45;46.99;40.56;57.15;;
77729;Laerm;68312;53.502;10.030;2023-06-05T02:51:10;45.88;40.00;58.92;;
77729;Laerm;68312;53.502;10.030;2023-06-05T02:53:37;44.86;41.00;55.21;;
77729;Laerm;68312;53.502;10.030;2023-06-05T02:56:04;44.08;40.77;53.48;;
77729;Laerm;68312;53.502;10.030;2023-06-05T02:58:30;44.85;40.26;57.07;;
77729;Laerm;68312;53.502;10.030;2023-06-05T03:00:55;43.72;39.88;55.93;;
77729;Laerm;68312;53.502;10.030;2023-06-05T03:03:22;43.95;40.45;50.34;;
77729;Laerm;68312;53.502;10.030;2023-06-05T03:05:47;44.30;39.77;54.52;;
77729;Laerm;68312;53.502;10.030;2023-06-05T03:08:12;43.67;39.97;50.85;;
77729;Laerm;68312;53.502;10.030;2023-06-05T03:10:38;43.85;39.93;53.86;;
77729;Laerm;68312;53.502;10.030;2023-06-05T03:13:03;50.09;39.99;71.67;;
77729;Laerm;68312;53.502;10.030;2023-06-05T03:15:29;44.21;40.13;56.41;;
77729;Laerm;68312;53.502;10.030;2023-06-05T03:17:55;44.20;40.70;53.00;;
77729;Laerm;68312;53.502;10.030;2023-06-05T03:20:20;44.41;40.27;55.04;;
77729;Laerm;68312;53.502;10.030;2023-06-05T03:22:46;44.86;41.25;57.45;;
77729;Laerm;68312;53.502;10.030;2023-06-05T03:25:11;45.08;41.10;67.65;;
77729;Laerm;68312;53.502;10.030;2023-06-05T03:27:37;44.26;41.09;54.43;;
77729;Laerm;68312;53.502;10.030;2023-06-05T03:30:04;44.16;41.39;47.89;;
77729;Laerm;68312;53.502;10.030;2023-06-05T03:32:31;46.13;40.89;59.44;;
77729;Laerm;68312;53.502;10.030;2023-06-05T03:34:56;46.43;41.89;57.14;;
77729;Laerm;68312;53.502;10.030;2023-06-05T03:37:22;48.55;41.57;59.31;;
77729;Laerm;68312;53.502;10.030;2023-06-05T03:39:47;44.91;41.64;51.73;;
77729;Laerm;68312;53.502;10.030;2023-06-05T03:42:16;46.15;41.78;57.56;;
77729;Laerm;68312;53.502;10.030;2023-06-05T03:44:41;45.27;41.55;54.24;;
77729;Laerm;68312;53.502;10.030;2023-06-05T03:47:07;47.70;42.58;59.82;;
77729;Laerm;68312;53.502;10.030;2023-06-05T03:49:32;46.49;41.74;56.37;;
77729;Laerm;68312;53.502;10.030;2023-06-05T03:51:58;45.22;42.03;56.22;;
77729;Laerm;68312;53.502;10.030;2023-06-05T03:54:23;45.75;41.77;57.32;;
77729;Laerm;68312;53.502;10.030;2023-06-05T03:56:49;47.48;41.81;63.49;;
77729;Laerm;68312;53.502;10.030;2023-06-05T03:59:14;51.03;41.78;66.91;;
77729;Laerm;68312;53.502;10.030;2023-06-05T04:01:40;45.90;41.32;56.18;;
77729;Laerm;68312;53.502;10.030;2023-06-05T04:04:05;49.21;40.39;68.00;;
77729;Laerm;68312;53.502;10.030;2023-06-05T04:06:31;46.49;41.02;58.94;;
77729;Laerm;68312;53.502;10.030;2023-06-05T04:08:57;46.23;41.71;56.60;;
77729;Laerm;68312;53.502;10.030;2023-06-05T04:11:22;46.96;41.80;61.27;;
77729;Laerm;68312;53.502;10.030;2023-06-05T04:13:50;45.81;41.12;53.12;;
77729;Laerm;68312;53.502;10.030;2023-06-05T04:16:16;46.17;40.98;59.02;;
77729;Laerm;68312;53.502;10.030;2023-06-05T04:18:41;47.16;40.66;61.39;;
77729;Laerm;68312;53.502;10.030;2023-06-05T04:21:07;46.12;41.01;57.43;;
77729;Laerm;68312;53.502;10.030;2023-06-05T04:23:32;46.01;40.38;62.37;;
77729;Laerm;68312;53.502;10.030;2023-06-05T04:25:58;46.48;40.41;62.88;;
77729;Laerm;68312;53.502;10.030;2023-06-05T04:28:23;48.47;39.42;65.53;;
77729;Laerm;68312;53.502;10.030;2023-06-05T04:30:49;42.51;38.61;56.43;;
77729;Laerm;68312;53.502;10.030;2023-06-05T04:33:14;43.93;39.90;57.54;;
77729;Laerm;68312;53.502;10.030;2023-06-05T04:35:40;44.73;39.52;62.78;;
77729;Laerm;68312;53.502;10.030;2023-06-05T04:38:05;52.85;39.43;70.01;;
77729;Laerm;68312;53.502;10.030;2023-06-05T04:40:31;44.97;39.36;59.73;;
77729;Laerm;68312;53.502;10.030;2023-06-05T04:42:56;55.10;40.12;67.42;;
77729;Laerm;68312;53.502;10.030;2023-06-05T04:45:22;44.05;40.24;57.80;;
77729;Laerm;68312;53.502;10.030;2023-06-05T04:47:47;50.03;40.60;67.88;;
77729;Laerm;68312;53.502;10.030;2023-06-05T04:50:26;50.78;39.79;69.18;;
77729;Laerm;68312;53.502;10.030;2023-06-05T04:52:52;44.52;39.52;60.79;;
77729;Laerm;68312;53.502;10.030;2023-06-05T04:55:18;50.15;39.74;80.74;;
77729;Laerm;68312;53.502;10.030;2023-06-05T04:57:43;46.48;38.97;60.78;;
77729;Laerm;68312;53.502;10.030;2023-06-05T05:00:09;50.16;41.36;70.53;;
77729;Laerm;68312;53.502;10.030;2023-06-05T05:02:35;51.38;40.03;65.51;;
77729;Laerm;68312;53.502;10.030;2023-06-05T05:05:01;51.28;40.16;67.60;;
77729;Laerm;68312;53.502;10.030;2023-06-05T05:07:26;46.56;40.18;56.31;;
77729;Laerm;68312;53.502;10.030;2023-06-05T05:09:54;51.68;44.26;64.69;;
77729;Laerm;68312;53.502;10.030;2023-06-05T05:12:20;49.48;41.95;67.83;;
77729;Laerm;68312;53.502;10.030;2023-06-05T05:14:45;48.35;41.61;61.92;;
77729;Laerm;68312;53.502;10.030;2023-06-05T05:17:11;51.96;41.74;68.61;;
77729;Laerm;68312;53.502;10.030;2023-06-05T05:19:36;44.91;38.19;54.69;;
77729;Laerm;68312;53.502;10.030;2023-06-05T05:22:02;48.16;38.43;65.30;;
77729;Laerm;68312;53.502;10.030;2023-06-05T05:24:27;47.74;38.11;74.20;;
77729;Laerm;68312;53.502;10.030;2023-06-05T05:26:53;48.68;39.69;59.64;;
77729;Laerm;68312;53.502;10.030;2023-06-05T05:29:18;54.68;38.80;71.25;;
77729;Laerm;68312;53.502;10.030;2023-06-05T05:31:44;63.42;60.53;69.87;;
77729;Laerm;68312;53.502;10.030;2023-06-05T05:34:10;62.45;59.29;67.32;;
77729;Laerm;68312;53.502;10.030;2023-06-05T05:36:36;62.22;59.35;68.98;;
77729;Laerm;68312;53.502;10.030;2023-06-05T05:39:01;61.56;43.74;66.34;;
77729;Laerm;68312;53.502;10.030;2023-06-05T05:41:27;49.41;41.76;57.74;;
77729;Laerm;68312;53.502;10.030;2023-06-05T05:43:52;49.09;41.56;55.66;;
77729;Laerm;68312;53.502;10.030;2023-06-05T05:46:18;48.76;42.52;62.49;;
77729;Laerm;68312;53.502;10.030;2023-06-05T05:48:43;50.34;43.65;56.67;;
77729;Laerm;68312;53.502;10.030;2023-06-05T05:51:09;51.21;39.70;59.75;;
77729;Laerm;68312;53.502;10.030;2023-06-05T05:53:34;43.57;39.16;61.12;;
77729;Laerm;68312;53.502;10.030;2023-06-05T05:56:00;44.05;39.69;57.31;;
77729;Laerm;68312;53.502;10.030;2023-06-05T05:58:26;63.46;39.47;74.64;;
77729;Laerm;68312;53.502;10.030;2023-06-05T06:00:51;66.05;59.29;73.83;;
77729;Laerm;68312;53.502;10.030;2023-06-05T06:03:17;66.48;58.36;72.43;;
77729;Laerm;68312;53.502;10.030;2023-06-05T06:05:46;64.93;50.58;72.01;;
77729;Laerm;68312;53.502;10.030;2023-06-05T06:08:11;65.87;51.24;72.31;;
77729;Laerm;68312;53.502;10.030;2023-06-05T06:10:38;66.82;51.16;76.34;;
77729;Laerm;68312;53.502;10.030;2023-06-05T06:13:04;66.22;50.17;72.13;;
77729;Laerm;68312;53.502;10.030;2023-06-05T06:15:31;66.85;53.06;73.47;;
77729;Laerm;68312;53.502;10.030;2023-06-05T06:17:56;64.25;49.41;74.77;;
77729;Laerm;68312;53.502;10.030;2023-06-05T06:20:23;53.67;50.25;68.82;;
77729;Laerm;68312;53.502;10.030;2023-06-05T06:22:48;63.68;47.99;72.97;;
77729;Laerm;68312;53.502;10.030;2023-06-05T06:25:14;66.48;49.12;73.42;;
77729;Laerm;68312;53.502;10.030;2023-06-05T06:27:40;66.21;47.61;76.07;;
77729;Laerm;68312;53.502;10.030;2023-06-05T06:30:06;61.75;48.46;75.36;;
77729;Laerm;68312;53.502;10.030;2023-06-05T06:32:32;58.37;47.28;69.18;;
77729;Laerm;68312;53.502;10.030;2023-06-05T06:34:58;65.29;47.72;74.05;;
77729;Laerm;68312;53.502;10.030;2023-06-05T06:37:23;61.13;48.44;72.60;;
77729;Laerm;68312;53.502;10.030;2023-06-05T06:39:49;59.97;48.36;75.10;;
77729;Laerm;68312;53.502;10.030;2023-06-05T06:42:15;63.83;47.18;71.84;;
77729;Laerm;68312;53.502;10.030;2023-06-05T06:44:41;62.61;47.89;74.46;;
77729;Laerm;68312;53.502;10.030;2023-06-05T06:47:07;64.01;48.48;71.91;;
77729;Laerm;68312;53.502;10.030;2023-06-05T06:49:34;62.73;54.03;73.52;;
77729;Laerm;68312;53.502;10.030;2023-06-05T06:51:59;75.78;52.53;98.58;;
77729;Laerm;68312;53.502;10.030;2023-06-05T06:54:25;75.14;52.93;101.91;;
77729;Laerm;68312;53.502;10.030;2023-06-05T06:56:50;62.77;52.18;72.99;;
77729;Laerm;68312;53.502;10.030;2023-06-05T06:59:16;66.14;54.71;74.96;;
77729;Laerm;68312;53.502;10.030;2023-06-05T07:01:46;63.72;52.64;71.93;;
77729;Laerm;68312;53.502;10.030;2023-06-05T07:04:15;66.81;54.72;75.24;;
77729;Laerm;68312;53.502;10.030;2023-06-05T07:06:41;66.06;60.24;76.51;;
77729;Laerm;68312;53.502;10.030;2023-06-05T07:09:06;62.03;52.35;70.26;;
77729;Laerm;68312;53.502;10.030;2023-06-05T07:11:32;64.55;52.85;73.62;;
77729;Laerm;68312;53.502;10.030;2023-06-05T07:13:57;64.64;54.50;71.96;;
77729;Laerm;68312;53.502;10.030;2023-06-05T07:16:23;62.58;49.21;69.62;;
77729;Laerm;68312;53.502;10.030;2023-06-05T07:18:48;60.46;48.67;68.03;;
77729;Laerm;68312;53.502;10.030;2023-06-05T07:21:13;64.03;48.02;72.23;;
77729;Laerm;68312;53.502;10.030;2023-06-05T07:23:39;51.11;44.85;62.70;;
77729;Laerm;68312;53.502;10.030;2023-06-05T07:26:04;50.12;43.20;73.48;;
77729;Laerm;68312;53.502;10.030;2023-06-05T07:28:30;56.88;43.92;70.36;;
77729;Laerm;68312;53.502;10.030;2023-06-05T07:30:55;48.83;43.11;66.39;;
77729;Laerm;68312;53.502;10.030;2023-06-05T07:33:20;54.16;42.99;67.65;;
77729;Laerm;68312;53.502;10.030;2023-06-05T07:35:49;57.64;45.09;67.15;;
77729;Laerm;68312;53.502;10.030;2023-06-05T07:38:15;50.55;44.47;67.80;;
77729;Laerm;68312;53.502;10.030;2023-06-05T07:40:40;45.60;39.57;65.26;;
77729;Laerm;68312;53.502;10.030;2023-06-05T07:43:05;51.75;38.98;72.81;;
77729;Laerm;68312;53.502;10.030;2023-06-05T07:45:31;43.33;39.57;58.76;;
77729;Laerm;68312;53.502;10.030;2023-06-05T07:47:56;43.16;39.12;53.75;;
77729;Laerm;68312;53.502;10.030;2023-06-05T07:50:22;43.00;38.43;53.63;;
77729;Laerm;68312;53.502;10.030;2023-06-05T07:52:47;45.39;38.89;61.78;;
77729;Laerm;68312;53.502;10.030;2023-06-05T07:55:13;42.63;38.72;55.93;;
77729;Laerm;68312;53.502;10.030;2023-06-05T07:57:38;44.54;39.34;53.80;;
77729;Laerm;68312;53.502;10.030;2023-06-05T08:00:05;49.13;40.31;64.30;;
77729;Laerm;68312;53.502;10.030;2023-06-05T08:02:30;45.26;40.70;54.87;;
77729;Laerm;68312;53.502;10.030;2023-06-05T08:04:56;44.15;38.19;57.22;;
77729;Laerm;68312;53.502;10.030;2023-06-05T08:07:21;41.80;38.56;53.90;;
77729;Laerm;68312;53.502;10.030;2023-06-05T08:09:47;44.39;38.83;57.11;;
77729;Laerm;68312;53.502;10.030;2023-06-05T08:12:15;48.25;39.54;62.53;;
77729;Laerm;68312;53.502;10.030;2023-06-05T08:14:40;43.29;39.80;51.25;;
77729;Laerm;68312;53.502;10.030;2023-06-05T08:17:06;42.40;37.69;50.97;;
77729;Laerm;68312;53.502;10.030;2023-06-05T08:19:31;41.43;37.03;49.63;;
77729;Laerm;68312;53.502;10.030;2023-06-05T08:21:57;47.76;38.13;71.96;;
77729;Laerm;68312;53.502;10.030;2023-06-05T08:24:23;51.78;39.34;69.36;;
77729;Laerm;68312;53.502;10.030;2023-06-05T08:26:48;43.61;38.69;57.56;;
77729;Laerm;68312;53.502;10.030;2023-06-05T08:29:14;44.13;38.96;56.50;;
77729;Laerm;68312;53.502;10.030;2023-06-05T08:31:39;44.60;38.11;56.03;;
77729;Laerm;68312;53.502;10.030;2023-06-05T08:34:05;44.21;38.75;55.36;;
77729;Laerm;68312;53.502;10.030;2023-06-05T08:36:31;44.22;39.84;53.75;;
77729;Laerm;68312;53.502;10.030;2023-06-05T08:38:57;44.75;38.99;57.92;;
77729;Laerm;68312;53.502;10.030;2023-06-05T08:41:25;72.04;39.81;103.32;;
77729;Laerm;68312;53.502;10.030;2023-06-05T08:43:51;43.88;39.78;54.09;;
77729;Laerm;68312;53.502;10.030;2023-06-05T08:46:17;49.79;39.89;67.91;;
77729;Laerm;68312;53.502;10.030;2023-06-05T08:48:46;46.39;40.60;57.64;;
77729;Laerm;68312;53.502;10.030;2023-06-05T08:51:18;45.36;40.04;60.94;;
77729;Laerm;68312;53.502;10.030;2023-06-05T08:54:05;43.36;37.99;62.79;;
77729;Laerm;68312;53.502;10.030;2023-06-05T08:56:31;46.43;39.35;60.65;;
77729;Laerm;68312;53.502;10.030;2023-06-05T08:58:57;46.59;39.13;60.28;;
77729;Laerm;68312;53.502;10.030;2023-06-05T09:01:23;45.45;39.19;59.07;;
77729;Laerm;68312;53.502;10.030;2023-06-05T09:03:50;51.95;39.75;69.17;;
77729;Laerm;68312;53.502;10.030;2023-06-05T09:06:15;43.87;38.50;60.17;;
77729;Laerm;68312;53.502;10.030;2023-06-05T09:08:41;47.74;37.57;73.17;;
77729;Laerm;68312;53.502;10.030;2023-06-05T09:11:28;42.71;38.13;57.62;;
77729;Laerm;68312;53.502;10.030;2023-06-05T09:13:58;46.65;38.54;74.31;;
77729;Laerm;68312;53.502;10.030;2023-06-05T09:16:42;42.21;37.02;53.78;;
77729;Laerm;68312;53.502;10.030;2023-06-05T09:19:09;52.99;36.85;65.93;;
77729;Laerm;68312;53.502;10.030;2023-06-05T09:21:35;47.40;36.97;64.34;;
77729;Laerm;68312;53.502;10.030;2023-06-05T09:24:32;47.12;37.32;72.92;;
77729;Laerm;68312;53.502;10.030;2023-06-05T09:27:04;46.23;36.38;64.17;;
77729;Laerm;68312;53.502;10.030;2023-06-05T09:29:39;42.68;38.61;52.01;;
77729;Laerm;68312;53.502;10.030;2023-06-05T09:32:19;44.21;38.62;70.86;;
77729;Laerm;68312;53.502;10.030;2023-06-05T09:34:44;48.11;37.68;65.95;;
77729;Laerm;68312;53.502;10.030;2023-06-05T09:37:12;46.74;37.24;75.52;;
77729;Laerm;68312;53.502;10.030;2023-06-05T09:39:40;43.62;37.68;59.82;;
77729;Laerm;68312;53.502;10.030;2023-06-05T09:42:07;49.62;38.20;64.43;;
77729;Laerm;68312;53.502;10.030;2023-06-05T09:44:35;43.18;38.69;54.52;;
77729;Laerm;68312;53.502;10.030;2023-06-05T09:47:08;45.38;38.95;56.19;;
77729;Laerm;68312;53.502;10.030;2023-06-05T09:52:09;44.56;38.05;55.64;;
77729;Laerm;68312;53.502;10.030;2023-06-05T09:54:38;43.57;37.72;57.37;;
77729;Laerm;68312;53.502;10.030;2023-06-05T09:57:07;47.08;39.21;57.13;;
77729;Laerm;68312;53.502;10.030;2023-06-05T10:02:06;42.69;35.30;54.47;;
77729;Laerm;68312;53.502;10.030;2023-06-05T10:05:00;40.59;35.68;56.43;;
77729;Laerm;68312;53.502;10.030;2023-06-05T10:07:27;50.04;36.20;69.72;;
77729;Laerm;68312;53.502;10.030;2023-06-05T10:09:54;46.27;37.22;59.97;;
77729;Laerm;68312;53.502;10.030;2023-06-05T10:12:20;44.83;38.85;58.31;;
77729;Laerm;68312;53.502;10.030;2023-06-05T10:14:49;41.69;37.47;50.17;;
77729;Laerm;68312;53.502;10.030;2023-06-05T10:17:16;43.85;38.28;57.45;;
77729;Laerm;68312;53.502;10.030;2023-06-05T10:19:43;44.01;39.01;56.50;;
77729;Laerm;68312;53.502;10.030;2023-06-05T10:22:13;45.02;40.18;57.68;;
77729;Laerm;68312;53.502;10.030;2023-06-05T10:24:46;50.51;38.59;66.93;;
77729;Laerm;68312;53.502;10.030;2023-06-05T10:28:15;43.57;37.53;57.18;;
77729;Laerm;68312;53.502;10.030;2023-06-05T10:31:37;42.46;38.98;50.87;;
77729;Laerm;68312;53.502;10.030;2023-06-05T10:34:43;47.88;38.06;67.24;;
77729;Laerm;68312;53.502;10.030;2023-06-05T10:37:39;43.40;39.40;50.60;;
77729;Laerm;68312;53.502;10.030;2023-06-05T10:40:10;42.22;36.65;53.07;;
77729;Laerm;68312;53.502;10.030;2023-06-05T10:42:37;41.51;37.11;57.58;;
77729;Laerm;68312;53.502;10.030;2023-06-05T10:45:03;43.60;36.86;56.93;;
77729;Laerm;68312;53.502;10.030;2023-06-05T10:52:42;47.23;37.43;62.07;;
77729;Laerm;68312;53.502;10.030;2023-06-05T10:55:10;52.99;38.66;75.12;;
77729;Laerm;68312;53.502;10.030;2023-06-05T11:00:34;47.89;37.90;65.18;;
77729;Laerm;68312;53.502;10.030;2023-06-05T11:03:00;42.32;37.62;55.20;;
77729;Laerm;68312;53.502;10.030;2023-06-05T11:05:26;42.62;39.06;48.65;;
77729;Laerm;68312;53.502;10.030;2023-06-05T11:08:16;48.07;39.16;63.41;;
77729;Laerm;68312;53.502;10.030;2023-06-05T11:11:06;43.11;38.77;53.19;;
77729;Laerm;68312;53.502;10.030;2023-06-05T11:13:57;50.85;37.42;69.89;;
77729;Laerm;68312;53.502;10.030;2023-06-05T11:16:30;41.84;35.84;53.93;;
77729;Laerm;68312;53.502;10.030;2023-06-05T11:22:18;39.09;34.78;52.49;;
77729;Laerm;68312;53.502;10.030;2023-06-05T11:24:44;39.90;35.03;52.92;;
77729;Laerm;68312;53.502;10.030;2023-06-05T11:27:49;42.04;35.89;52.41;;
77729;Laerm;68312;53.502;10.030;2023-06-05T11:30:19;51.02;37.36;59.40;;
77729;Laerm;68312;53.502;10.030;2023-06-05T11:32:45;54.65;45.11;68.80;;
77729;Laerm;68312;53.502;10.030;2023-06-05T11:35:11;51.62;44.05;56.16;;
77729;Laerm;68312;53.502;10.030;2023-06-05T11:37:38;50.16;40.79;60.37;;
77729;Laerm;68312;53.502;10.030;2023-06-05T11:40:06;51.30;40.28;60.58;;
77729;Laerm;68312;53.502;10.030;2023-06-05T11:42:32;53.91;43.72;59.43;;
77729;Laerm;68312;53.502;10.030;2023-06-05T11:44:58;55.80;47.83;69.30;;
77729;Laerm;68312;53.502;10.030;2023-06-05T11:47:26;54.68;41.97;60.37;;
77729;Laerm;68312;53.502;10.030;2023-06-05T11:49:52;50.74;40.22;59.47;;
77729;Laerm;68312;53.502;10.030;2023-06-05T11:52:21;48.80;39.14;59.55;;
77729;Laerm;68312;53.502;10.030;2023-06-05T11:54:50;49.78;38.95;59.96;;
77729;Laerm;68312;53.502;10.030;2023-06-05T11:57:15;50.18;40.17;57.80;;
77729;Laerm;68312;53.502;10.030;2023-06-05T11:59:41;65.23;40.27;95.03;;
77729;Laerm;68312;53.502;10.030;2023-06-05T12:02:07;69.08;38.21;99.55;;
77729;Laerm;68312;53.502;10.030;2023-06-05T12:04:34;50.49;35.91;72.68;;
77729;Laerm;68312;53.502;10.030;2023-06-05T12:07:00;71.48;36.04;97.83;;
77729;Laerm;68312;53.502;10.030;2023-06-05T12:09:25;54.28;39.22;72.96;;
77729;Laerm;68312;53.502;10.030;2023-06-05T12:12:17;52.38;37.07;75.58;;
77729;Laerm;68312;53.502;10.030;2023-06-05T12:14:43;70.38;35.69;100.77;;
77729;Laerm;68312;53.502;10.030;2023-06-05T12:17:10;51.86;36.55;74.04;;
77729;Laerm;68312;53.502;10.030;2023-06-05T12:19:36;47.95;36.25;60.30;;
77729;Laerm;68312;53.502;10.030;2023-06-05T12:22:07;52.15;36.91;69.19;;
77729;Laerm;68312;53.502;10.030;2023-06-05T12:24:32;54.24;37.26;76.42;;
77729;Laerm;68312;53.502;10.030;2023-06-05T12:27:03;53.45;37.43;74.67;;
77729;Laerm;68312;53.502;10.030;2023-06-05T12:29:32;54.22;38.61;76.63;;
77729;Laerm;68312;53.502;10.030;2023-06-05T12:32:01;51.74;38.81;67.73;;
77729;Laerm;68312;53.502;10.030;2023-06-05T12:34:48;54.37;38.17;77.01;;
77729;Laerm;68312;53.502;10.030;2023-06-05T12:37:30;51.93;34.03;70.92;;
77729;Laerm;68312;53.502;10.030;2023-06-05T12:40:01;45.43;32.92;64.05;;
77729;Laerm;68312;53.502;10.030;2023-06-05T12:42:34;76.74;33.02;103.58;;
77729;Laerm;68312;53.502;10.030;2023-06-05T12:44:59;57.91;50.37;70.85;;
77729;Laerm;68312;53.502;10.030;2023-06-05T12:47:25;55.98;50.61;62.32;;
77729;Laerm;68312;53.502;10.030;2023-06-05T12:49:50;53.74;50.12;64.36;;
77729;Laerm;68312;53.502;10.030;2023-06-05T12:52:16;56.46;50.71;73.12;;
77729;Laerm;68312;53.502;10.030;2023-06-05T12:54:42;54.01;35.61;61.01;;
77729;Laerm;68312;53.502;10.030;2023-06-05T12:57:07;49.76;35.71;60.99;;
77729;Laerm;68312;53.502;10.030;2023-06-05T12:59:34;56.24;51.76;63.23;;
77729;Laerm;68312;53.502;10.030;2023-06-05T13:01:59;56.87;38.14;66.44;;
77729;Laerm;68312;53.502;10.030;2023-06-05T13:04:27;45.56;37.04;59.11;;
77729;Laerm;68312;53.502;10.030;2023-06-05T13:06:53;44.21;36.52;70.05;;
77729;Laerm;68312;53.502;10.030;2023-06-05T13:09:22;45.89;35.85;72.59;;
77729;Laerm;68312;53.502;10.030;2023-06-05T13:11:48;47.61;36.82;74.84;;
77729;Laerm;68312;53.502;10.030;2023-06-05T13:14:13;56.92;36.83;75.47;;
77729;Laerm;68312;53.502;10.030;2023-06-05T13:16:39;57.61;50.69;75.69;;
77729;Laerm;68312;53.502;10.030;2023-06-05T13:19:04;57.23;51.95;73.97;;
77729;Laerm;68312;53.502;10.030;2023-06-05T13:21:30;54.06;36.25;68.29;;
77729;Laerm;68312;53.502;10.030;2023-06-05T13:23:55;50.22;37.12;61.37;;
77729;Laerm;68312;53.502;10.030;2023-06-05T13:26:21;52.28;37.90;62.96;;
77729;Laerm;68312;53.502;10.030;2023-06-05T13:28:46;51.92;36.61;65.88;;
77729;Laerm;68312;53.502;10.030;2023-06-05T13:31:12;50.79;36.87;64.76;;
77729;Laerm;68312;53.502;10.030;2023-06-05T13:33:37;48.65;38.51;60.74;;
77729;Laerm;68312;53.502;10.030;2023-06-05T13:36:03;43.51;34.32;55.99;;
77729;Laerm;68312;53.502;10.030;2023-06-05T13:38:28;39.05;34.13;52.32;;
77729;Laerm;68312;53.502;10.030;2023-06-05T13:40:54;40.71;34.46;66.04;;
77729;Laerm;68312;53.502;10.030;2023-06-05T13:43:20;48.47;36.05;60.23;;
77729;Laerm;68312;53.502;10.030;2023-06-05T13:45:46;45.13;36.43;56.79;;
77729;Laerm;68312;53.502;10.030;2023-06-05T13:48:11;50.76;36.30;67.83;;
77729;Laerm;68312;53.502;10.030;2023-06-05T13:50:37;49.52;36.74;60.26;;
77729;Laerm;68312;53.502;10.030;2023-06-05T13:53:02;49.05;36.70;64.52;;